sensor_id;sensor_type;location;lat;lon;timestamp;pressure;altitude;pressure_sealevel;temperature;humidity
37904;BME280;23738;50.422;18.758;2023-01-31T00:01:08;97762.11;;;1.32;88.05
37904;BME280;23738;50.422;18.758;2023-01-31T00:03:36;97766.64;;;1.32;88.21
37904;BME280;23738;50.422;18.758;2023-01-31T00:06:12;97763.67;;;1.32;88.12
37904;BME280;23738;50.422;18.758;2023-01-31T00:08:40;97760.68;;;1.31;88.13
37904;BME280;23738;50.422;18.758;2023-01-31T00:11:08;97761.39;;;1.29;88.14
37904;BME280;23738;50.422;18.758;2023-01-31T00:13:36;97763.83;;;1.29;88.54
37904;BME280;23738;50.422;18.758;2023-01-31T00:16:04;97765.27;;;1.30;88.57
37904;BME280;23738;50.422;18.758;2023-01-31T00:18:32;97771.73;;;1.30;88.39
37904;BME280;23738;50.422;18.758;2023-01-31T00:21:05;97766.95;;;1.29;88.32
37904;BME280;23738;50.422;18.758;2023-01-31T00:23:33;97770.45;;;1.30;88.41
37904;BME280;23738;50.422;18.758;2023-01-31T00:26:11;97768.52;;;1.31;88.24
37904;BME280;23738;50.422;18.758;2023-01-31T00:28:39;97768.96;;;1.33;88.32
37904;BME280;23738;50.422;18.758;2023-01-31T00:31:07;97768.73;;;1.34;88.28
37904;BME280;23738;50.422;18.758;2023-01-31T00:33:34;97773.77;;;1.34;88.50
37904;BME280;23738;50.422;18.758;2023-01-31T00:36:04;97776.08;;;1.33;88.33
37904;BME280;23738;50.422;18.758;2023-01-31T00:38:32;97782.81;;;1.35;88.41
37904;BME280;23738;50.422;18.758;2023-01-31T00:41:01;97786.13;;;1.33;88.76
37904;BME280;23738;50.422;18.758;2023-01-31T00:43:29;97782.83;;;1.31;88.55
37904;BME280;23738;50.422;18.758;2023-01-31T00:45:57;97792.90;;;1.30;88.46
37904;BME280;23738;50.422;18.758;2023-01-31T00:48:25;97794.95;;;1.30;88.36
37904;BME280;23738;50.422;18.758;2023-01-31T00:50:52;97798.90;;;1.30;89.09
37904;BME280;23738;50.422;18.758;2023-01-31T00:53:20;97804.15;;;1.33;89.52
37904;BME280;23738;50.422;18.758;2023-01-31T00:55:49;97802.20;;;1.34;89.45
37904;BME280;23738;50.422;18.758;2023-01-31T00:58:17;97810.45;;;1.36;89.23
37904;BME280;23738;50.422;18.758;2023-01-31T01:00:45;97817.70;;;1.40;89.32
37904;BME280;23738;50.422;18.758;2023-01-31T01:03:13;97819.78;;;1.43;89.99
37904;BME280;23738;50.422;18.758;2023-01-31T01:05:41;97819.62;;;1.46;89.53
37904;BME280;23738;50.422;18.758;2023-01-31T01:08:08;97827.05;;;1.48;89.43
37904;BME280;23738;50.422;18.758;2023-01-31T01:10:36;97823.45;;;1.51;89.57
37904;BME280;23738;50.422;18.758;2023-01-31T01:13:04;97830.48;;;1.53;89.70
37904;BME280;23738;50.422;18.758;2023-01-31T01:15:31;97836.83;;;1.54;89.57
37904;BME280;23738;50.422;18.758;2023-01-31T01:17:59;97839.28;;;1.58;89.76
37904;BME280;23738;50.422;18.758;2023-01-31T01:20:26;97840.61;;;1.60;89.47
37904;BME280;23738;50.422;18.758;2023-01-31T01:22:53;97842.63;;;1.62;89.27
37904;BME280;23738;50.422;18.758;2023-01-31T01:25:20;97839.70;;;1.62;89.22
37904;BME280;23738;50.422;18.758;2023-01-31T01:27:48;97841.04;;;1.62;89.20
37904;BME280;23738;50.422;18.758;2023-01-31T01:30:16;97846.34;;;1.63;89.26
37904;BME280;23738;50.422;18.758;2023-01-31T01:32:43;97846.65;;;1.65;89.15
37904;BME280;23738;50.422;18.758;2023-01-31T01:35:12;97838.87;;;1.62;89.09
37904;BME280;23738;50.422;18.758;2023-01-31T01:37:39;97848.19;;;1.67;88.69
37904;BME280;23738;50.422;18.758;2023-01-31T01:40:09;97844.95;;;1.66;88.67
37904;BME280;23738;50.422;18.758;2023-01-31T01:42:37;97848.89;;;1.70;88.56
37904;BME280;23738;50.422;18.758;2023-01-31T01:45:12;97851.34;;;1.70;88.68
37904;BME280;23738;50.422;18.758;2023-01-31T01:47:45;97851.11;;;1.71;88.56
37904;BME280;23738;50.422;18.758;2023-01-31T01:50:18;97843.50;;;1.72;88.49
37904;BME280;23738;50.422;18.758;2023-01-31T01:52:49;97844.84;;;1.72;88.30
37904;BME280;23738;50.422;18.758;2023-01-31T01:55:22;97841.55;;;1.72;88.37
37904;BME280;23738;50.422;18.758;2023-01-31T01:57:52;97843.63;;;1.71;88.40
37904;BME280;23738;50.422;18.758;2023-01-31T02:00:24;97848.73;;;1.70;88.39
37904;BME280;23738;50.422;18.758;2023-01-31T02:02:55;97845.65;;;1.71;88.44
37904;BME280;23738;50.422;18.758;2023-01-31T02:05:28;97847.48;;;1.70;88.19
37904;BME280;23738;50.422;18.758;2023-01-31T02:07:57;97854.27;;;1.69;88.46
37904;BME280;23738;50.422;18.758;2023-01-31T02:10:29;97863.97;;;1.66;88.48
37904;BME280;23738;50.422;18.758;2023-01-31T02:12:58;97873.16;;;1.61;88.80
37904;BME280;23738;50.422;18.758;2023-01-31T02:15:26;97880.27;;;1.54;88.83
37904;BME280;23738;50.422;18.758;2023-01-31T02:17:53;97879.92;;;1.47;88.65
37904;BME280;23738;50.422;18.758;2023-01-31T02:20:44;97875.67;;;1.40;88.94
37904;BME280;23738;50.422;18.758;2023-01-31T02:23:46;97881.16;;;1.30;90.01
37904;BME280;23738;50.422;18.758;2023-01-31T02:26:46;97882.00;;;1.22;89.35
37904;BME280;23738;50.422;18.758;2023-01-31T02:29:41;97883.95;;;1.15;88.83
37904;BME280;23738;50.422;18.758;2023-01-31T02:32:39;97884.73;;;1.11;88.80
37904;BME280;23738;50.422;18.758;2023-01-31T02:35:20;97883.84;;;1.09;89.06
37904;BME280;23738;50.422;18.758;2023-01-31T02:37:59;97894.89;;;1.06;89.17
37904;BME280;23738;50.422;18.758;2023-01-31T02:40:36;97891.98;;;1.04;89.37
37904;BME280;23738;50.422;18.758;2023-01-31T02:43:10;97897.85;;;1.03;89.09
37904;BME280;23738;50.422;18.758;2023-01-31T02:45:46;97897.42;;;1.04;89.10
37904;BME280;23738;50.422;18.758;2023-01-31T02:48:23;97912.93;;;1.01;89.03
37904;BME280;23738;50.422;18.758;2023-01-31T02:50:59;97923.17;;;0.97;89.08
37904;BME280;23738;50.422;18.758;2023-01-31T02:53:31;97926.45;;;0.94;89.70
37904;BME280;23738;50.422;18.758;2023-01-31T02:56:02;97932.59;;;0.90;89.68
37904;BME280;23738;50.422;18.758;2023-01-31T02:58:48;97930.85;;;0.83;89.63
37904;BME280;23738;50.422;18.758;2023-01-31T03:01:20;97938.80;;;0.80;89.65
37904;BME280;23738;50.422;18.758;2023-01-31T03:03:50;97943.70;;;0.78;90.12
37904;BME280;23738;50.422;18.758;2023-01-31T03:06:51;97947.87;;;0.76;89.85
37904;BME280;23738;50.422;18.758;2023-01-31T03:09:33;97959.80;;;0.71;89.96
37904;BME280;23738;50.422;18.758;2023-01-31T03:12:17;97958.34;;;0.61;90.07
37904;BME280;23738;50.422;18.758;2023-01-31T03:14:54;97969.06;;;0.65;90.03
37904;BME280;23738;50.422;18.758;2023-01-31T03:17:34;97976.17;;;0.63;89.82
37904;BME280;23738;50.422;18.758;2023-01-31T03:20:08;97975.84;;;0.61;89.86
37904;BME280;23738;50.422;18.758;2023-01-31T03:22:41;97973.16;;;0.60;89.70
37904;BME280;23738;50.422;18.758;2023-01-31T03:25:12;97968.40;;;0.61;89.46
37904;BME280;23738;50.422;18.758;2023-01-31T03:27:44;97974.94;;;0.62;89.32
37904;BME280;23738;50.422;18.758;2023-01-31T03:30:17;97977.35;;;0.63;89.27
37904;BME280;23738;50.422;18.758;2023-01-31T03:32:51;97986.77;;;0.64;89.38
37904;BME280;23738;50.422;18.758;2023-01-31T03:35:20;97995.63;;;0.66;89.58
37904;BME280;23738;50.422;18.758;2023-01-31T03:37:54;97999.02;;;0.69;89.35
37904;BME280;23738;50.422;18.758;2023-01-31T03:40:28;98003.14;;;0.69;89.39
37904;BME280;23738;50.422;18.758;2023-01-31T03:43:03;98011.52;;;0.70;89.24
37904;BME280;23738;50.422;18.758;2023-01-31T03:45:34;98013.52;;;0.71;89.39
37904;BME280;23738;50.422;18.758;2023-01-31T03:48:07;98024.54;;;0.72;89.37
37904;BME280;23738;50.422;18.758;2023-01-31T03:50:41;98028.35;;;0.73;89.19
37904;BME280;23738;50.422;18.758;2023-01-31T03:53:14;98034.68;;;0.76;89.32
37904;BME280;23738;50.422;18.758;2023-01-31T03:55:48;98036.02;;;0.77;89.28
37904;BME280;23738;50.422;18.758;2023-01-31T03:58:19;98033.70;;;0.78;89.33
37904;BME280;23738;50.422;18.758;2023-01-31T04:00:49;98033.63;;;0.80;89.33
37904;BME280;23738;50.422;18.758;2023-01-31T04:03:22;98034.23;;;0.79;89.32
37904;BME280;23738;50.422;18.758;2023-01-31T04:05:50;98044.55;;;0.85;89.24
37904;BME280;23738;50.422;18.758;2023-01-31T04:08:18;98042.35;;;0.87;89.20
37904;BME280;23738;50.422;18.758;2023-01-31T04:10:45;98044.02;;;0.87;89.22
37904;BME280;23738;50.422;18.758;2023-01-31T04:13:12;98044.85;;;0.86;89.35
37904;BME280;23738;50.422;18.758;2023-01-31T04:15:40;98053.54;;;0.84;89.54
37904;BME280;23738;50.422;18.758;2023-01-31T04:18:07;98059.04;;;0.83;89.32
37904;BME280;23738;50.422;18.758;2023-01-31T04:20:34;98066.53;;;0.84;89.51
37904;BME280;23738;50.422;18.758;2023-01-31T04:23:03;98059.73;;;0.86;89.37
37904;BME280;23738;50.422;18.758;2023-01-31T04:25:30;98063.33;;;0.88;89.20
37904;BME280;23738;50.422;18.758;2023-01-31T04:27:57;98066.55;;;0.91;89.31
37904;BME280;23738;50.422;18.758;2023-01-31T04:30:24;98065.89;;;0.89;89.27
37904;BME280;23738;50.422;18.758;2023-01-31T04:32:51;98070.10;;;0.87;89.43
37904;BME280;23738;50.422;18.758;2023-01-31T04:35:18;98074.72;;;0.84;89.39
37904;BME280;23738;50.422;18.758;2023-01-31T04:37:47;98079.88;;;0.82;89.66
37904;BME280;23738;50.422;18.758;2023-01-31T04:40:14;98083.48;;;0.83;89.68
37904;BME280;23738;50.422;18.758;2023-01-31T04:42:41;98078.91;;;0.83;89.55
37904;BME280;23738;50.422;18.758;2023-01-31T04:45:10;98082.14;;;0.82;89.51
37904;BME280;23738;50.422;18.758;2023-01-31T04:47:38;98080.61;;;0.82;89.52
37904;BME280;23738;50.422;18.758;2023-01-31T04:50:07;98081.35;;;0.83;89.56
37904;BME280;23738;50.422;18.758;2023-01-31T04:52:34;98083.97;;;0.85;89.48
37904;BME280;23738;50.422;18.758;2023-01-31T04:55:02;98091.08;;;0.87;89.49
37904;BME280;23738;50.422;18.758;2023-01-31T04:57:30;98091.34;;;0.87;89.59
37904;BME280;23738;50.422;18.758;2023-01-31T04:59:57;98098.45;;;0.86;89.56
37904;BME280;23738;50.422;18.758;2023-01-31T05:02:24;98097.71;;;0.84;89.59
37904;BME280;23738;50.422;18.758;2023-01-31T05:04:52;98099.25;;;0.84;89.68
37904;BME280;23738;50.422;18.758;2023-01-31T05:07:19;98107.04;;;0.85;89.67
37904;BME280;23738;50.422;18.758;2023-01-31T05:09:46;98112.43;;;0.84;89.77
37904;BME280;23738;50.422;18.758;2023-01-31T05:12:13;98116.96;;;0.83;89.98
37904;BME280;23738;50.422;18.758;2023-01-31T05:14:40;98121.97;;;0.81;89.73
37904;BME280;23738;50.422;18.758;2023-01-31T05:17:07;98123.11;;;0.80;89.75
37904;BME280;23738;50.422;18.758;2023-01-31T05:19:35;98124.24;;;0.83;89.92
37904;BME280;23738;50.422;18.758;2023-01-31T05:22:02;98124.39;;;0.81;89.82
37904;BME280;23738;50.422;18.758;2023-01-31T05:24:31;98125.16;;;0.80;89.79
37904;BME280;23738;50.422;18.758;2023-01-31T05:27:03;98128.83;;;0.78;89.82
37904;BME280;23738;50.422;18.758;2023-01-31T05:29:32;98135.84;;;0.77;89.78
37904;BME280;23738;50.422;18.758;2023-01-31T05:32:00;98134.17;;;0.74;89.75
37904;BME280;23738;50.422;18.758;2023-01-31T05:34:28;98135.83;;;0.70;89.75
37904;BME280;23738;50.422;18.758;2023-01-31T05:36:59;98133.52;;;0.69;89.65
37904;BME280;23738;50.422;18.758;2023-01-31T05:39:27;98133.77;;;0.68;89.71
37904;BME280;23738;50.422;18.758;2023-01-31T05:41:55;98137.34;;;0.67;89.95
37904;BME280;23738;50.422;18.758;2023-01-31T05:44:22;98133.98;;;0.64;89.81
37904;BME280;23738;50.422;18.758;2023-01-31T05:46:50;98135.17;;;0.62;89.92
37904;BME280;23738;50.422;18.758;2023-01-31T05:49:17;98139.35;;;0.62;89.97
37904;BME280;23738;50.422;18.758;2023-01-31T05:51:44;98144.89;;;0.62;89.92
37904;BME280;23738;50.422;18.758;2023-01-31T05:54:12;98155.95;;;0.61;89.97
37904;BME280;23738;50.422;18.758;2023-01-31T05:56:39;98165.45;;;0.59;90.00
37904;BME280;23738;50.422;18.758;2023-01-31T05:59:07;98177.29;;;0.60;89.96
37904;BME280;23738;50.422;18.758;2023-01-31T06:01:34;98180.16;;;0.61;90.13
37904;BME280;23738;50.422;18.758;2023-01-31T06:04:01;98183.53;;;0.60;90.10
37904;BME280;23738;50.422;18.758;2023-01-31T06:06:28;98186.21;;;0.59;90.08
37904;BME280;23738;50.422;18.758;2023-01-31T06:08:56;98190.09;;;0.59;89.90
37904;BME280;23738;50.422;18.758;2023-01-31T06:11:23;98198.85;;;0.62;89.83
37904;BME280;23738;50.422;18.758;2023-01-31T06:13:51;98205.49;;;0.63;89.89
37904;BME280;23738;50.422;18.758;2023-01-31T06:16:20;98214.23;;;0.62;89.83
37904;BME280;23738;50.422;18.758;2023-01-31T06:18:47;98217.02;;;0.62;89.82
37904;BME280;23738;50.422;18.758;2023-01-31T06:21:14;98223.36;;;0.63;89.72
37904;BME280;23738;50.422;18.758;2023-01-31T06:23:42;98225.80;;;0.64;89.71
37904;BME280;23738;50.422;18.758;2023-01-31T06:26:12;98230.91;;;0.67;89.69
37904;BME280;23738;50.422;18.758;2023-01-31T06:28:39;98233.46;;;0.68;89.78
37904;BME280;23738;50.422;18.758;2023-01-31T06:31:07;98235.84;;;0.66;89.66
37904;BME280;23738;50.422;18.758;2023-01-31T06:33:35;98240.48;;;0.66;89.71
37904;BME280;23738;50.422;18.758;2023-01-31T06:36:03;98242.16;;;0.67;89.65
37904;BME280;23738;50.422;18.758;2023-01-31T06:38:31;98247.77;;;0.70;89.69
37904;BME280;23738;50.422;18.758;2023-01-31T06:40:58;98260.34;;;0.71;89.56
37904;BME280;23738;50.422;18.758;2023-01-31T06:43:26;98263.56;;;0.70;89.57
37904;BME280;23738;50.422;18.758;2023-01-31T06:45:53;98270.27;;;0.71;89.57
37904;BME280;23738;50.422;18.758;2023-01-31T06:48:20;98273.36;;;0.72;89.56
37904;BME280;23738;50.422;18.758;2023-01-31T06:50:48;98273.52;;;0.71;89.48
37904;BME280;23738;50.422;18.758;2023-01-31T06:53:15;98281.91;;;0.75;89.69
37904;BME280;23738;50.422;18.758;2023-01-31T06:55:42;98278.64;;;0.73;89.60
37904;BME280;23738;50.422;18.758;2023-01-31T06:58:09;98286.30;;;0.75;89.65
37904;BME280;23738;50.422;18.758;2023-01-31T07:00:36;98289.98;;;0.77;89.43
37904;BME280;23738;50.422;18.758;2023-01-31T07:03:03;98292.79;;;0.80;89.50
37904;BME280;23738;50.422;18.758;2023-01-31T07:05:31;98296.38;;;0.82;89.52
37904;BME280;23738;50.422;18.758;2023-01-31T07:07:58;98298.08;;;0.83;89.37
37904;BME280;23738;50.422;18.758;2023-01-31T07:10:25;98296.88;;;0.83;89.36
37904;BME280;23738;50.422;18.758;2023-01-31T07:12:52;98292.17;;;0.81;89.43
37904;BME280;23738;50.422;18.758;2023-01-31T07:15:20;98296.20;;;0.83;89.44
37904;BME280;23738;50.422;18.758;2023-01-31T07:17:47;98298.27;;;0.85;89.34
37904;BME280;23738;50.422;18.758;2023-01-31T07:20:14;98300.41;;;0.88;89.60
37904;BME280;23738;50.422;18.758;2023-01-31T07:22:41;98304.36;;;0.88;89.42
37904;BME280;23738;50.422;18.758;2023-01-31T07:25:09;98309.02;;;0.90;89.39
37904;BME280;23738;50.422;18.758;2023-01-31T07:27:36;98315.23;;;0.94;89.18
37904;BME280;23738;50.422;18.758;2023-01-31T07:30:05;98318.38;;;0.97;89.34
37904;BME280;23738;50.422;18.758;2023-01-31T07:32:33;98320.95;;;0.98;89.14
37904;BME280;23738;50.422;18.758;2023-01-31T07:35:00;98325.63;;;0.97;89.38
37904;BME280;23738;50.422;18.758;2023-01-31T07:37:27;98326.04;;;0.99;89.25
37904;BME280;23738;50.422;18.758;2023-01-31T07:39:54;98332.48;;;1.02;89.04
37904;BME280;23738;50.422;18.758;2023-01-31T07:42:21;98334.76;;;1.04;89.36
37904;BME280;23738;50.422;18.758;2023-01-31T07:44:49;98338.34;;;1.04;89.23
37904;BME280;23738;50.422;18.758;2023-01-31T07:47:18;98341.40;;;1.05;89.29
37904;BME280;23738;50.422;18.758;2023-01-31T07:49:46;98345.26;;;1.08;89.19
37904;BME280;23738;50.422;18.758;2023-01-31T07:52:15;98338.88;;;1.10;89.07
37904;BME280;23738;50.422;18.758;2023-01-31T07:54:42;98339.77;;;1.09;88.86
37904;BME280;23738;50.422;18.758;2023-01-31T07:57:10;98339.48;;;1.08;89.05
37904;BME280;23738;50.422;18.758;2023-01-31T07:59:39;98339.95;;;1.09;89.08
37904;BME280;23738;50.422;18.758;2023-01-31T08:02:09;98341.36;;;1.11;88.98
37904;BME280;23738;50.422;18.758;2023-01-31T08:04:56;98343.83;;;1.12;88.88
37904;BME280;23738;50.422;18.758;2023-01-31T08:07:24;98350.92;;;1.12;88.86
37904;BME280;23738;50.422;18.758;2023-01-31T08:09:51;98357.46;;;1.13;88.73
37904;BME280;23738;50.422;18.758;2023-01-31T08:12:18;98356.35;;;1.14;88.79
37904;BME280;23738;50.422;18.758;2023-01-31T08:14:46;98359.11;;;1.18;88.86
37904;BME280;23738;50.422;18.758;2023-01-31T08:17:13;98354.61;;;1.21;88.67
37904;BME280;23738;50.422;18.758;2023-01-31T08:19:40;98350.98;;;1.23;88.72
37904;BME280;23738;50.422;18.758;2023-01-31T08:22:07;98360.49;;;1.23;88.66
37904;BME280;23738;50.422;18.758;2023-01-31T08:24:35;98360.22;;;1.24;88.76
37904;BME280;23738;50.422;18.758;2023-01-31T08:27:02;98360.91;;;1.28;88.19
37904;BME280;23738;50.422;18.758;2023-01-31T08:29:29;98360.89;;;1.30;88.58
37904;BME280;23738;50.422;18.758;2023-01-31T08:31:57;98367.11;;;1.30;88.62
37904;BME280;23738;50.422;18.758;2023-01-31T08:34:24;98370.58;;;1.34;88.58
37904;BME280;23738;50.422;18.758;2023-01-31T08:36:53;98375.33;;;1.37;88.47
37904;BME280;23738;50.422;18.758;2023-01-31T08:39:20;98373.73;;;1.39;88.18
37904;BME280;23738;50.422;18.758;2023-01-31T08:41:47;98373.67;;;1.36;88.21
37904;BME280;23738;50.422;18.758;2023-01-31T08:44:15;98376.46;;;1.39;88.18
37904;BME280;23738;50.422;18.758;2023-01-31T08:46:42;98380.33;;;1.43;88.42
37904;BME280;23738;50.422;18.758;2023-01-31T08:49:11;98380.98;;;1.44;88.20
37904;BME280;23738;50.422;18.758;2023-01-31T08:51:38;98382.66;;;1.47;88.11
37904;BME280;23738;50.422;18.758;2023-01-31T08:54:05;98382.80;;;1.47;87.80
37904;BME280;23738;50.422;18.758;2023-01-31T08:56:32;98392.45;;;1.48;87.68
37904;BME280;23738;50.422;18.758;2023-01-31T08:59:00;98398.83;;;1.52;87.79
37904;BME280;23738;50.422;18.758;2023-01-31T09:01:27;98398.98;;;1.54;87.71
37904;BME280;23738;50.422;18.758;2023-01-31T09:03:55;98396.23;;;1.54;87.45
37904;BME280;23738;50.422;18.758;2023-01-31T09:06:25;98400.08;;;1.53;87.42
37904;BME280;23738;50.422;18.758;2023-01-31T09:08:55;98402.18;;;1.55;87.01
37904;BME280;23738;50.422;18.758;2023-01-31T09:11:22;98409.06;;;1.58;86.63
37904;BME280;23738;50.422;18.758;2023-01-31T09:13:49;98413.01;;;1.59;86.32
37904;BME280;23738;50.422;18.758;2023-01-31T09:16:18;98415.70;;;1.58;86.07
37904;BME280;23738;50.422;18.758;2023-01-31T09:18:45;98415.42;;;1.57;86.79
37904;BME280;23738;50.422;18.758;2023-01-31T09:21:14;98424.54;;;1.60;86.81
37904;BME280;23738;50.422;18.758;2023-01-31T09:23:44;98425.35;;;1.64;86.75
37904;BME280;23738;50.422;18.758;2023-01-31T09:26:12;98420.52;;;1.67;86.64
37904;BME280;23738;50.422;18.758;2023-01-31T09:28:40;98426.41;;;1.69;86.23
37904;BME280;23738;50.422;18.758;2023-01-31T09:31:10;98425.98;;;1.70;85.65
37904;BME280;23738;50.422;18.758;2023-01-31T09:33:37;98431.37;;;1.70;85.57
37904;BME280;23738;50.422;18.758;2023-01-31T09:36:08;98432.74;;;1.66;85.10
37904;BME280;23738;50.422;18.758;2023-01-31T09:38:36;98435.77;;;1.60;84.78
37904;BME280;23738;50.422;18.758;2023-01-31T09:41:08;98439.98;;;1.56;85.40
37904;BME280;23738;50.422;18.758;2023-01-31T09:43:43;98437.86;;;1.54;85.48
37904;BME280;23738;50.422;18.758;2023-01-31T09:46:15;98440.61;;;1.54;85.76
37904;BME280;23738;50.422;18.758;2023-01-31T09:48:49;98443.36;;;1.55;85.80
37904;BME280;23738;50.422;18.758;2023-01-31T09:51:18;98445.48;;;1.54;86.02
37904;BME280;23738;50.422;18.758;2023-01-31T09:53:47;98452.59;;;1.55;86.16
37904;BME280;23738;50.422;18.758;2023-01-31T09:56:22;98456.03;;;1.59;86.21
37904;BME280;23738;50.422;18.758;2023-01-31T09:58:58;98458.38;;;1.62;86.14
37904;BME280;23738;50.422;18.758;2023-01-31T10:01:33;98458.36;;;1.64;86.35
37904;BME280;23738;50.422;18.758;2023-01-31T10:04:13;98459.30;;;1.61;86.26
37904;BME280;23738;50.422;18.758;2023-01-31T10:06:49;98455.68;;;1.57;86.42
37904;BME280;23738;50.422;18.758;2023-01-31T10:09:24;98453.16;;;1.56;86.47
37904;BME280;23738;50.422;18.758;2023-01-31T10:11:56;98447.59;;;1.58;86.51
37904;BME280;23738;50.422;18.758;2023-01-31T10:14:32;98451.77;;;1.63;86.46
37904;BME280;23738;50.422;18.758;2023-01-31T10:17:05;98445.55;;;1.65;86.31
37904;BME280;23738;50.422;18.758;2023-01-31T10:19:41;98443.83;;;1.63;86.10
37904;BME280;23738;50.422;18.758;2023-01-31T10:22:15;98444.41;;;1.62;86.24
37904;BME280;23738;50.422;18.758;2023-01-31T10:24:48;98441.48;;;1.62;86.27
37904;BME280;23738;50.422;18.758;2023-01-31T10:27:25;98438.89;;;1.66;86.41
37904;BME280;23738;50.422;18.758;2023-01-31T10:29:56;98436.85;;;1.72;86.29
37904;BME280;23738;50.422;18.758;2023-01-31T10:32:29;98435.16;;;1.75;86.34
37904;BME280;23738;50.422;18.758;2023-01-31T10:34:59;98433.80;;;1.79;86.17
37904;BME280;23738;50.422;18.758;2023-01-31T10:37:33;98436.36;;;1.79;86.04
37904;BME280;23738;50.422;18.758;2023-01-31T10:40:11;98437.98;;;1.80;86.17
37904;BME280;23738;50.422;18.758;2023-01-31T10:42:43;98438.09;;;1.84;86.11
37904;BME280;23738;50.422;18.758;2023-01-31T10:45:16;98437.55;;;1.90;85.30
37904;BME280;23738;50.422;18.758;2023-01-31T10:47:49;98435.41;;;1.96;85.87
37904;BME280;23738;50.422;18.758;2023-01-31T10:50:18;98434.13;;;1.99;85.54
37904;BME280;23738;50.422;18.758;2023-01-31T10:52:55;98433.14;;;1.98;85.49
37904;BME280;23738;50.422;18.758;2023-01-31T10:55:35;98428.38;;;1.99;85.33
37904;BME280;23738;50.422;18.758;2023-01-31T10:58:10;98421.63;;;2.02;85.39
37904;BME280;23738;50.422;18.758;2023-01-31T11:00:40;98416.27;;;2.07;85.62
37904;BME280;23738;50.422;18.758;2023-01-31T11:03:10;98412.81;;;2.11;85.14
37904;BME280;23738;50.422;18.758;2023-01-31T11:05:43;98414.52;;;2.14;85.19
37904;BME280;23738;50.422;18.758;2023-01-31T11:08:24;98415.43;;;2.21;85.45
37904;BME280;23738;50.422;18.758;2023-01-31T11:10:54;98408.61;;;2.27;85.36
37904;BME280;23738;50.422;18.758;2023-01-31T11:13:23;98410.13;;;2.30;85.21
37904;BME280;23738;50.422;18.758;2023-01-31T11:15:52;98404.86;;;2.31;84.97
37904;BME280;23738;50.422;18.758;2023-01-31T11:18:27;98402.23;;;2.30;84.93
37904;BME280;23738;50.422;18.758;2023-01-31T11:20:56;98402.25;;;2.31;85.28
37904;BME280;23738;50.422;18.758;2023-01-31T11:23:26;98398.58;;;2.33;85.38
37904;BME280;23738;50.422;18.758;2023-01-31T11:25:54;98398.41;;;2.36;85.07
37904;BME280;23738;50.422;18.758;2023-01-31T11:28:26;98401.25;;;2.36;84.72
37904;BME280;23738;50.422;18.758;2023-01-31T11:30:55;98402.82;;;2.37;85.06
37904;BME280;23738;50.422;18.758;2023-01-31T11:33:40;98399.68;;;2.38;85.02
37904;BME280;23738;50.422;18.758;2023-01-31T11:36:12;98401.31;;;2.41;84.51
37904;BME280;23738;50.422;18.758;2023-01-31T11:38:40;98395.37;;;2.47;85.12
37904;BME280;23738;50.422;18.758;2023-01-31T11:41:29;98386.73;;;2.60;84.87
37904;BME280;23738;50.422;18.758;2023-01-31T11:44:11;98381.79;;;2.81;84.58
37904;BME280;23738;50.422;18.758;2023-01-31T11:46:51;98381.35;;;2.84;84.22
37904;BME280;23738;50.422;18.758;2023-01-31T11:49:27;98380.03;;;2.78;84.04
37904;BME280;23738;50.422;18.758;2023-01-31T11:51:56;98375.34;;;2.68;84.39
37904;BME280;23738;50.422;18.758;2023-01-31T11:54:27;98379.91;;;2.65;84.16
37904;BME280;23738;50.422;18.758;2023-01-31T11:56:57;98379.88;;;2.62;84.21
37904;BME280;23738;50.422;18.758;2023-01-31T11:59:27;98380.76;;;2.62;84.10
37904;BME280;23738;50.422;18.758;2023-01-31T12:01:58;98381.11;;;2.59;83.82
37904;BME280;23738;50.422;18.758;2023-01-31T12:04:30;98378.29;;;2.54;84.24
37904;BME280;23738;50.422;18.758;2023-01-31T12:07:01;98379.98;;;2.49;84.10
37904;BME280;23738;50.422;18.758;2023-01-31T12:09:38;98379.67;;;2.44;83.58
37904;BME280;23738;50.422;18.758;2023-01-31T12:12:22;98380.65;;;2.36;83.45
37904;BME280;23738;50.422;18.758;2023-01-31T12:14:50;98379.02;;;2.27;83.44
37904;BME280;23738;50.422;18.758;2023-01-31T12:17:18;98377.40;;;2.23;83.88
37904;BME280;23738;50.422;18.758;2023-01-31T12:19:54;98374.92;;;2.25;84.09
37904;BME280;23738;50.422;18.758;2023-01-31T12:22:30;98372.73;;;2.27;84.16
37904;BME280;23738;50.422;18.758;2023-01-31T12:25:06;98369.61;;;2.33;84.21
37904;BME280;23738;50.422;18.758;2023-01-31T12:27:47;98363.98;;;2.34;84.33
37904;BME280;23738;50.422;18.758;2023-01-31T12:30:26;98360.04;;;2.42;84.58
37904;BME280;23738;50.422;18.758;2023-01-31T12:33:12;98353.79;;;2.47;84.38
37904;BME280;23738;50.422;18.758;2023-01-31T12:35:48;98356.45;;;2.65;84.44
37904;BME280;23738;50.422;18.758;2023-01-31T12:38:31;98348.52;;;2.85;84.60
37904;BME280;23738;50.422;18.758;2023-01-31T12:41:11;98349.13;;;3.05;84.58
37904;BME280;23738;50.422;18.758;2023-01-31T12:44:01;98345.64;;;3.06;84.27
37904;BME280;23738;50.422;18.758;2023-01-31T12:46:38;98342.44;;;2.97;83.98
37904;BME280;23738;50.422;18.758;2023-01-31T12:49:27;98339.45;;;2.87;83.32
37904;BME280;23738;50.422;18.758;2023-01-31T12:52:01;98335.08;;;2.82;84.04
37904;BME280;23738;50.422;18.758;2023-01-31T12:54:47;98331.61;;;2.84;84.02
37904;BME280;23738;50.422;18.758;2023-01-31T12:57:26;98323.82;;;2.84;83.91
37904;BME280;23738;50.422;18.758;2023-01-31T13:00:07;98321.92;;;2.83;84.24
37904;BME280;23738;50.422;18.758;2023-01-31T13:02:43;98314.70;;;2.81;84.23
37904;BME280;23738;50.422;18.758;2023-01-31T13:05:25;98321.23;;;2.87;84.32
37904;BME280;23738;50.422;18.758;2023-01-31T13:07:59;98322.04;;;2.87;84.24
37904;BME280;23738;50.422;18.758;2023-01-31T13:10:35;98321.62;;;2.90;84.40
37904;BME280;23738;50.422;18.758;2023-01-31T13:13:05;98319.41;;;2.91;84.53
37904;BME280;23738;50.422;18.758;2023-01-31T13:15:42;98326.13;;;2.90;84.30
37904;BME280;23738;50.422;18.758;2023-01-31T13:18:12;98334.24;;;2.87;84.21
37904;BME280;23738;50.422;18.758;2023-01-31T13:20:42;98336.45;;;2.84;84.07